N205WH EHAM-EBOS
Flight info
| Callsign | N205WH |
|---|---|
| Flight time | 0h 51m |
| Altitude | 1000 |
| Route | VICTOR EHRD BOSSY |
| Aircraft | S22T/L-SBGRY/L |
Departure
| Time | 2026-05-06 19:15 |
|---|---|
| Airport | Amsterdam Airport Schiphol (EHAM) |
Arrival
| Time | 2026-05-06 20:07 |
|---|---|
| Airport | Ostend-Bruges International Airport (EBOS) |
| Time | Latitude | Longitude | Altitude | Speed | Heading |
|---|---|---|---|---|---|
| 2026-05-06 18:57 | 52.31164 | 4.80849 | -12 ft | 0 kts | 266° |
| 2026-05-06 19:04 | 52.31164 | 4.80844 | -12 ft | 2 kts | 258° |
| 2026-05-06 19:04 | 52.31163 | 4.80812 | -12 ft | 4 kts | 276° |
| 2026-05-06 19:04 | 52.31166 | 4.80786 | -12 ft | 0 kts | 284° |
| 2026-05-06 19:05 | 52.31167 | 4.80783 | -12 ft | 1 kts | 284° |
| 2026-05-06 19:05 | 52.31157 | 4.80751 | -12 ft | 5 kts | 225° |
| 2026-05-06 19:05 | 52.31158 | 4.80707 | -12 ft | 4 kts | 312° |
| 2026-05-06 19:05 | 52.31181 | 4.80666 | -12 ft | 5 kts | 311° |
| 2026-05-06 19:06 | 52.31203 | 4.80624 | -12 ft | 6 kts | 311° |
| 2026-05-06 19:06 | 52.31230 | 4.80573 | -11 ft | 6 kts | 311° |
| 2026-05-06 19:06 | 52.31247 | 4.80532 | -11 ft | 4 kts | 282° |
| 2026-05-06 19:06 | 52.31248 | 4.80529 | -11 ft | 0 kts | 277° |
| 2026-05-06 19:08 | 52.31248 | 4.80511 | -11 ft | 6 kts | 270° |
| 2026-05-06 19:08 | 52.31241 | 4.80422 | -11 ft | 9 kts | 239° |
| 2026-05-06 19:08 | 52.31187 | 4.80341 | -11 ft | 12 kts | 221° |
| 2026-05-06 19:09 | 52.31122 | 4.80248 | -11 ft | 12 kts | 221° |
| 2026-05-06 19:09 | 52.31062 | 4.80162 | -11 ft | 12 kts | 221° |
| 2026-05-06 19:09 | 52.30998 | 4.80070 | -12 ft | 13 kts | 220° |
| 2026-05-06 19:09 | 52.30932 | 4.79977 | -12 ft | 13 kts | 221° |
| 2026-05-06 19:10 | 52.30858 | 4.79870 | -12 ft | 14 kts | 220° |
| 2026-05-06 19:10 | 52.30788 | 4.79770 | -12 ft | 13 kts | 221° |
| 2026-05-06 19:10 | 52.30712 | 4.79660 | -12 ft | 15 kts | 220° |
| 2026-05-06 19:10 | 52.30650 | 4.79574 | -12 ft | 8 kts | 220° |
| 2026-05-06 19:11 | 52.30604 | 4.79508 | -11 ft | 10 kts | 222° |
| 2026-05-06 19:11 | 52.30548 | 4.79426 | -12 ft | 11 kts | 221° |
| 2026-05-06 19:11 | 52.30499 | 4.79356 | -12 ft | 12 kts | 221° |
| 2026-05-06 19:11 | 52.30444 | 4.79277 | -12 ft | 12 kts | 221° |
| 2026-05-06 19:12 | 52.30372 | 4.79174 | -12 ft | 15 kts | 220° |
| 2026-05-06 19:12 | 52.30294 | 4.79062 | -12 ft | 14 kts | 221° |
| 2026-05-06 19:12 | 52.30222 | 4.78961 | -12 ft | 13 kts | 220° |
| 2026-05-06 19:12 | 52.30152 | 4.78859 | -12 ft | 14 kts | 222° |
| 2026-05-06 19:13 | 52.30091 | 4.78773 | -12 ft | 11 kts | 221° |
| 2026-05-06 19:13 | 52.30045 | 4.78703 | -12 ft | 7 kts | 239° |
| 2026-05-06 19:13 | 52.30046 | 4.78624 | -11 ft | 7 kts | 297° |
| 2026-05-06 19:13 | 52.30064 | 4.78585 | -11 ft | 4 kts | 313° |
| 2026-05-06 19:14 | 52.30086 | 4.78544 | -9 ft | 5 kts | 311° |
| 2026-05-06 19:14 | 52.30125 | 4.78485 | -10 ft | 8 kts | 356° |
| 2026-05-06 19:14 | 52.30262 | 4.78671 | -12 ft | 58 kts | 41° |
| 2026-05-06 19:14 | 52.30661 | 4.79255 | 54 ft | 89 kts | 43° |
| 2026-05-06 19:15 | 52.31129 | 4.79968 | 296 ft | 96 kts | 37° |
| 2026-05-06 19:15 | 52.31394 | 4.80972 | 606 ft | 116 kts | 98° |
| 2026-05-06 19:15 | 52.30628 | 4.81801 | 741 ft | 145 kts | 160° |
| 2026-05-06 19:15 | 52.29600 | 4.82254 | 674 ft | 159 kts | 161° |
| 2026-05-06 19:16 | 52.28626 | 4.82846 | 920 ft | 145 kts | 141° |
| 2026-05-06 19:16 | 52.28137 | 4.84247 | 968 ft | 140 kts | 97° |
| 2026-05-06 19:16 | 52.27766 | 4.85809 | 900 ft | 154 kts | 117° |
| 2026-05-06 19:16 | 52.27217 | 4.87292 | 927 ft | 152 kts | 117° |
| 2026-05-06 19:17 | 52.26628 | 4.88720 | 927 ft | 150 kts | 120° |
| 2026-05-06 19:17 | 52.25946 | 4.89971 | 933 ft | 147 kts | 127° |
| 2026-05-06 19:17 | 52.25267 | 4.91169 | 954 ft | 139 kts | 126° |
| 2026-05-06 19:17 | 52.24614 | 4.92312 | 986 ft | 138 kts | 126° |
| 2026-05-06 19:18 | 52.23966 | 4.93442 | 989 ft | 135 kts | 126° |
| 2026-05-06 19:18 | 52.23330 | 4.94546 | 990 ft | 132 kts | 126° |
| 2026-05-06 19:18 | 52.22744 | 4.95685 | 990 ft | 130 kts | 121° |
| 2026-05-06 19:18 | 52.22190 | 4.96856 | 989 ft | 129 kts | 117° |
| 2026-05-06 19:19 | 52.21445 | 4.97695 | 988 ft | 141 kts | 169° |
| 2026-05-06 19:19 | 52.20546 | 4.97196 | 996 ft | 143 kts | 222° |
| 2026-05-06 19:19 | 52.19833 | 4.96085 | 1001 ft | 140 kts | 224° |
| 2026-05-06 19:19 | 52.19118 | 4.94998 | 1005 ft | 140 kts | 224° |
| 2026-05-06 19:20 | 52.18399 | 4.93907 | 1008 ft | 142 kts | 224° |
| 2026-05-06 19:20 | 52.17682 | 4.92798 | 1001 ft | 143 kts | 225° |
| 2026-05-06 19:20 | 52.16947 | 4.91685 | 1006 ft | 145 kts | 224° |
| 2026-05-06 19:20 | 52.16215 | 4.90557 | 1008 ft | 145 kts | 224° |
| 2026-05-06 19:21 | 52.15480 | 4.89410 | 1002 ft | 148 kts | 225° |
| 2026-05-06 19:21 | 52.14726 | 4.88251 | 1002 ft | 149 kts | 224° |
| 2026-05-06 19:21 | 52.13978 | 4.87104 | 1006 ft | 146 kts | 224° |
| 2026-05-06 19:21 | 52.13249 | 4.85995 | 1003 ft | 146 kts | 224° |
| 2026-05-06 19:22 | 52.12503 | 4.84862 | 1001 ft | 146 kts | 224° |
| 2026-05-06 19:22 | 52.11765 | 4.83721 | 997 ft | 146 kts | 224° |
| 2026-05-06 19:22 | 52.11015 | 4.82575 | 995 ft | 148 kts | 224° |
| 2026-05-06 19:22 | 52.10269 | 4.81430 | 993 ft | 147 kts | 224° |
| 2026-05-06 19:23 | 52.09522 | 4.80287 | 1001 ft | 149 kts | 224° |
| 2026-05-06 19:23 | 52.08769 | 4.79143 | 1013 ft | 148 kts | 224° |
| 2026-05-06 19:23 | 52.08016 | 4.77990 | 1002 ft | 149 kts | 224° |
| 2026-05-06 19:23 | 52.07261 | 4.76847 | 1008 ft | 148 kts | 224° |
| 2026-05-06 19:24 | 52.06508 | 4.75686 | 991 ft | 151 kts | 224° |
| 2026-05-06 19:24 | 52.05763 | 4.74504 | 998 ft | 149 kts | 224° |
| 2026-05-06 19:24 | 52.05027 | 4.73337 | 996 ft | 146 kts | 225° |
| 2026-05-06 19:24 | 52.04295 | 4.72183 | 996 ft | 148 kts | 224° |
| 2026-05-06 19:25 | 52.03558 | 4.71019 | 1002 ft | 151 kts | 225° |
| 2026-05-06 19:25 | 52.02820 | 4.69817 | 1000 ft | 150 kts | 231° |
| 2026-05-06 19:25 | 52.02191 | 4.68469 | 1000 ft | 149 kts | 234° |
| 2026-05-06 19:25 | 52.01591 | 4.67115 | 988 ft | 146 kts | 236° |
| 2026-05-06 19:26 | 52.00993 | 4.65794 | 991 ft | 145 kts | 232° |
| 2026-05-06 19:26 | 52.00339 | 4.64540 | 994 ft | 144 kts | 225° |
| 2026-05-06 19:26 | 51.99536 | 4.63532 | 996 ft | 147 kts | 212° |
| 2026-05-06 19:26 | 51.98679 | 4.62682 | 996 ft | 146 kts | 207° |
| 2026-05-06 19:27 | 51.97783 | 4.61924 | 994 ft | 145 kts | 205° |
| 2026-05-06 19:27 | 51.96863 | 4.61248 | 996 ft | 145 kts | 202° |
| 2026-05-06 19:27 | 51.95968 | 4.60496 | 989 ft | 145 kts | 217° |
| 2026-05-06 19:27 | 51.95471 | 4.59142 | 1002 ft | 143 kts | 259° |
| 2026-05-06 19:28 | 51.95291 | 4.57546 | 997 ft | 144 kts | 263° |
| 2026-05-06 19:28 | 51.95196 | 4.56483 | 998 ft | 143 kts | 264° |
| 2026-05-06 19:28 | 51.95082 | 4.54876 | 1003 ft | 144 kts | 268° |
| 2026-05-06 19:28 | 51.95019 | 4.53243 | 1001 ft | 145 kts | 267° |
| 2026-05-06 19:29 | 51.94840 | 4.51059 | 1008 ft | 149 kts | 261° |
| 2026-05-06 19:29 | 51.94653 | 4.49407 | 1002 ft | 149 kts | 262° |
| 2026-05-06 19:29 | 51.94591 | 4.48286 | 1005 ft | 148 kts | 279° |
| 2026-05-06 19:29 | 51.94834 | 4.46677 | 1006 ft | 147 kts | 288° |
| 2026-05-06 19:30 | 51.95127 | 4.45111 | 1005 ft | 145 kts | 299° |
| 2026-05-06 19:30 | 51.95776 | 4.43939 | 996 ft | 139 kts | 330° |
| 2026-05-06 19:30 | 51.96508 | 4.43072 | 994 ft | 122 kts | 325° |
| 2026-05-06 19:30 | 51.96798 | 4.41879 | 981 ft | 116 kts | 259° |
| 2026-05-06 19:31 | 51.96406 | 4.40763 | 987 ft | 114 kts | 240° |
| 2026-05-06 19:31 | 51.96009 | 4.39624 | 991 ft | 119 kts | 241° |
| 2026-05-06 19:31 | 51.94991 | 4.37598 | 905 ft | 123 kts | 184° |
| 2026-05-06 19:32 | 51.94345 | 4.38165 | 761 ft | 106 kts | 112° |
| 2026-05-06 19:32 | 51.94175 | 4.39253 | 700 ft | 96 kts | 90° |
| 2026-05-06 19:32 | 51.94245 | 4.40230 | 573 ft | 89 kts | 71° |
| 2026-05-06 19:32 | 51.94524 | 4.41128 | 360 ft | 89 kts | 52° |
| 2026-05-06 19:33 | 51.94859 | 4.41942 | 246 ft | 87 kts | 56° |
| 2026-05-06 19:33 | 51.95191 | 4.42762 | 70 ft | 87 kts | 56° |
| 2026-05-06 19:33 | 51.95502 | 4.43547 | -11 ft | 74 kts | 57° |
| 2026-05-06 19:33 | 51.95756 | 4.44191 | -10 ft | 67 kts | 57° |
| 2026-05-06 19:34 | 51.96080 | 4.44998 | 73 ft | 93 kts | 54° |
| 2026-05-06 19:34 | 51.96460 | 4.45865 | 312 ft | 104 kts | 51° |
| 2026-05-06 19:34 | 51.97113 | 4.46230 | 535 ft | 120 kts | 338° |
| 2026-05-06 19:34 | 51.97399 | 4.44886 | 697 ft | 144 kts | 265° |
| 2026-05-06 19:35 | 51.97287 | 4.43279 | 927 ft | 148 kts | 269° |
| 2026-05-06 19:35 | 51.97250 | 4.41556 | 991 ft | 156 kts | 271° |
| 2026-05-06 19:35 | 51.97256 | 4.39771 | 1006 ft | 160 kts | 274° |
| 2026-05-06 19:35 | 51.97277 | 4.37961 | 1001 ft | 160 kts | 275° |
| 2026-05-06 19:36 | 51.97300 | 4.36185 | 1002 ft | 154 kts | 273° |
| 2026-05-06 19:36 | 51.97327 | 4.34467 | 1001 ft | 152 kts | 276° |
| 2026-05-06 19:36 | 51.97355 | 4.32775 | 991 ft | 147 kts | 274° |
| 2026-05-06 19:36 | 51.97309 | 4.31137 | 994 ft | 145 kts | 268° |
| 2026-05-06 19:37 | 51.97240 | 4.29490 | 984 ft | 148 kts | 270° |
| 2026-05-06 19:37 | 51.97173 | 4.27843 | 1003 ft | 146 kts | 269° |
| 2026-05-06 19:37 | 51.97106 | 4.26182 | 998 ft | 148 kts | 269° |
| 2026-05-06 19:37 | 51.97053 | 4.24527 | 994 ft | 146 kts | 270° |
| 2026-05-06 19:38 | 51.97001 | 4.22878 | 996 ft | 146 kts | 271° |
| 2026-05-06 19:38 | 51.96950 | 4.21241 | 1000 ft | 145 kts | 271° |
| 2026-05-06 19:38 | 51.96937 | 4.19634 | 999 ft | 143 kts | 272° |
| 2026-05-06 19:38 | 51.96934 | 4.18000 | 1009 ft | 146 kts | 276° |
| 2026-05-06 19:39 | 51.96993 | 4.16350 | 1004 ft | 147 kts | 279° |
| 2026-05-06 19:39 | 51.97082 | 4.14691 | 1005 ft | 149 kts | 279° |
| 2026-05-06 19:39 | 51.97187 | 4.12994 | 1003 ft | 152 kts | 279° |
| 2026-05-06 19:39 | 51.96899 | 4.11364 | 997 ft | 154 kts | 236° |
| 2026-05-06 19:40 | 51.96280 | 4.09937 | 1016 ft | 158 kts | 237° |
| 2026-05-06 19:40 | 51.95633 | 4.08449 | 1001 ft | 162 kts | 236° |
| 2026-05-06 19:40 | 51.94987 | 4.06986 | 1011 ft | 159 kts | 231° |
| 2026-05-06 19:40 | 51.94174 | 4.05780 | 1005 ft | 160 kts | 219° |
| 2026-05-06 19:41 | 51.93321 | 4.04609 | 1006 ft | 160 kts | 220° |
| 2026-05-06 19:41 | 51.92476 | 4.03439 | 1004 ft | 161 kts | 220° |
| 2026-05-06 19:41 | 51.91637 | 4.02293 | 1006 ft | 158 kts | 219° |
| 2026-05-06 19:41 | 51.90801 | 4.01146 | 1000 ft | 157 kts | 219° |
| 2026-05-06 19:42 | 51.89973 | 4.00015 | 1000 ft | 154 kts | 220° |
| 2026-05-06 19:42 | 51.89149 | 3.98909 | 1005 ft | 154 kts | 219° |
| 2026-05-06 19:42 | 51.88322 | 3.97788 | 1000 ft | 154 kts | 220° |
| 2026-05-06 19:42 | 51.87512 | 3.96670 | 1006 ft | 153 kts | 220° |
| 2026-05-06 19:43 | 51.86688 | 3.95556 | 1001 ft | 155 kts | 220° |
| 2026-05-06 19:43 | 51.85853 | 3.94434 | 1007 ft | 156 kts | 220° |
| 2026-05-06 19:43 | 51.85028 | 3.93306 | 1009 ft | 156 kts | 221° |
| 2026-05-06 19:43 | 51.84197 | 3.92163 | 1011 ft | 156 kts | 220° |
| 2026-05-06 19:44 | 51.83382 | 3.91024 | 1011 ft | 154 kts | 221° |
| 2026-05-06 19:44 | 51.82557 | 3.89915 | 1019 ft | 159 kts | 219° |
| 2026-05-06 19:44 | 51.81691 | 3.88750 | 1011 ft | 163 kts | 219° |
| 2026-05-06 19:44 | 51.80832 | 3.87547 | 1021 ft | 165 kts | 221° |
| 2026-05-06 19:45 | 51.79946 | 3.86354 | 1005 ft | 165 kts | 218° |
| 2026-05-06 19:45 | 51.79086 | 3.85152 | 1007 ft | 162 kts | 220° |
| 2026-05-06 19:45 | 51.78236 | 3.83995 | 1004 ft | 157 kts | 220° |
| 2026-05-06 19:45 | 51.77410 | 3.82867 | 1011 ft | 155 kts | 220° |
| 2026-05-06 19:46 | 51.76593 | 3.81735 | 1000 ft | 154 kts | 219° |
| 2026-05-06 19:46 | 51.75804 | 3.80617 | 999 ft | 152 kts | 219° |
| 2026-05-06 19:46 | 51.75019 | 3.79495 | 1002 ft | 150 kts | 220° |
| 2026-05-06 19:46 | 51.74217 | 3.78390 | 1019 ft | 153 kts | 219° |
| 2026-05-06 19:47 | 51.73410 | 3.77246 | 1023 ft | 155 kts | 221° |
| 2026-05-06 19:47 | 51.72586 | 3.76080 | 1018 ft | 159 kts | 220° |
| 2026-05-06 19:47 | 51.71744 | 3.74889 | 1018 ft | 163 kts | 220° |
| 2026-05-06 19:47 | 51.70902 | 3.73710 | 1015 ft | 157 kts | 219° |
| 2026-05-06 19:48 | 51.70076 | 3.72570 | 1022 ft | 157 kts | 220° |
| 2026-05-06 19:48 | 51.69268 | 3.71426 | 1023 ft | 156 kts | 219° |
| 2026-05-06 19:48 | 51.68461 | 3.70248 | 1011 ft | 155 kts | 221° |
| 2026-05-06 19:48 | 51.67649 | 3.69104 | 1015 ft | 155 kts | 220° |
| 2026-05-06 19:49 | 51.66835 | 3.67957 | 1012 ft | 156 kts | 220° |
| 2026-05-06 19:49 | 51.66040 | 3.66794 | 1009 ft | 157 kts | 221° |
| 2026-05-06 19:49 | 51.65231 | 3.65638 | 1014 ft | 155 kts | 220° |
| 2026-05-06 19:49 | 51.64422 | 3.64483 | 1008 ft | 155 kts | 220° |
| 2026-05-06 19:50 | 51.63617 | 3.63329 | 1007 ft | 154 kts | 220° |
| 2026-05-06 19:50 | 51.62811 | 3.62191 | 1006 ft | 154 kts | 220° |
| 2026-05-06 19:50 | 51.61994 | 3.61063 | 1003 ft | 155 kts | 219° |
| 2026-05-06 19:50 | 51.61185 | 3.59930 | 1014 ft | 154 kts | 220° |
| 2026-05-06 19:51 | 51.60393 | 3.58807 | 1006 ft | 154 kts | 219° |
| 2026-05-06 19:51 | 51.59589 | 3.57656 | 1009 ft | 155 kts | 220° |
| 2026-05-06 19:51 | 51.58784 | 3.56476 | 1011 ft | 160 kts | 220° |
| 2026-05-06 19:51 | 51.57932 | 3.55293 | 1015 ft | 162 kts | 220° |
| 2026-05-06 19:52 | 51.57088 | 3.54078 | 1018 ft | 162 kts | 221° |
| 2026-05-06 19:52 | 51.56255 | 3.52873 | 1006 ft | 160 kts | 220° |
| 2026-05-06 19:52 | 51.55411 | 3.51708 | 1031 ft | 160 kts | 219° |
| 2026-05-06 19:52 | 51.54568 | 3.50523 | 1015 ft | 162 kts | 220° |
| 2026-05-06 19:53 | 51.53735 | 3.49347 | 1014 ft | 161 kts | 219° |
| 2026-05-06 19:53 | 51.52902 | 3.48179 | 1014 ft | 158 kts | 220° |
| 2026-05-06 19:53 | 51.52057 | 3.47013 | 1008 ft | 157 kts | 219° |
| 2026-05-06 19:53 | 51.51199 | 3.45931 | 1000 ft | 158 kts | 217° |
| 2026-05-06 19:54 | 51.50331 | 3.44847 | 993 ft | 157 kts | 216° |
| 2026-05-06 19:54 | 51.49479 | 3.43774 | 996 ft | 154 kts | 216° |
| 2026-05-06 19:54 | 51.48644 | 3.42718 | 992 ft | 152 kts | 217° |
| 2026-05-06 19:54 | 51.47814 | 3.41675 | 997 ft | 151 kts | 216° |
| 2026-05-06 19:55 | 51.46978 | 3.40618 | 991 ft | 150 kts | 217° |
| 2026-05-06 19:55 | 51.46174 | 3.39588 | 995 ft | 150 kts | 218° |
| 2026-05-06 19:55 | 51.45343 | 3.38569 | 991 ft | 150 kts | 217° |
| 2026-05-06 19:55 | 51.44519 | 3.37559 | 994 ft | 149 kts | 217° |
| 2026-05-06 19:56 | 51.43698 | 3.36525 | 994 ft | 150 kts | 217° |
| 2026-05-06 19:56 | 51.42870 | 3.35513 | 995 ft | 150 kts | 216° |
| 2026-05-06 19:56 | 51.42043 | 3.34485 | 998 ft | 151 kts | 217° |
| 2026-05-06 19:56 | 51.41211 | 3.33445 | 996 ft | 153 kts | 217° |
| 2026-05-06 19:57 | 51.40381 | 3.32378 | 1000 ft | 153 kts | 218° |
| 2026-05-06 19:57 | 51.39539 | 3.31327 | 1003 ft | 154 kts | 217° |
| 2026-05-06 19:57 | 51.38702 | 3.30295 | 1004 ft | 154 kts | 216° |
| 2026-05-06 19:57 | 51.37861 | 3.29238 | 997 ft | 153 kts | 217° |
| 2026-05-06 19:58 | 51.37016 | 3.28200 | 1002 ft | 153 kts | 216° |
| 2026-05-06 19:58 | 51.36167 | 3.27167 | 1007 ft | 154 kts | 216° |
| 2026-05-06 19:58 | 51.35319 | 3.26127 | 1001 ft | 153 kts | 216° |
| 2026-05-06 19:58 | 51.34462 | 3.25122 | 1005 ft | 154 kts | 215° |
| 2026-05-06 19:59 | 51.33604 | 3.24046 | 1017 ft | 162 kts | 218° |
| 2026-05-06 19:59 | 51.32695 | 3.22949 | 1006 ft | 164 kts | 216° |
| 2026-05-06 19:59 | 51.31792 | 3.21872 | 1020 ft | 160 kts | 215° |
| 2026-05-06 19:59 | 51.30912 | 3.20819 | 1009 ft | 156 kts | 217° |
| 2026-05-06 20:00 | 51.30038 | 3.19781 | 1013 ft | 157 kts | 216° |
| 2026-05-06 20:00 | 51.29150 | 3.18724 | 1019 ft | 162 kts | 217° |
| 2026-05-06 20:00 | 51.28358 | 3.17495 | 1011 ft | 159 kts | 236° |
| 2026-05-06 20:00 | 51.27787 | 3.16023 | 1001 ft | 156 kts | 248° |
| 2026-05-06 20:01 | 51.27382 | 3.14430 | 1018 ft | 153 kts | 248° |
| 2026-05-06 20:01 | 51.26915 | 3.12906 | 1001 ft | 150 kts | 246° |
| 2026-05-06 20:01 | 51.26457 | 3.11404 | 996 ft | 149 kts | 247° |
| 2026-05-06 20:01 | 51.26019 | 3.09948 | 1020 ft | 144 kts | 249° |
| 2026-05-06 20:02 | 51.25578 | 3.08494 | 994 ft | 147 kts | 247° |
| 2026-05-06 20:02 | 51.25153 | 3.07018 | 1007 ft | 145 kts | 248° |
| 2026-05-06 20:02 | 51.24707 | 3.05619 | 998 ft | 136 kts | 242° |
| 2026-05-06 20:02 | 51.24147 | 3.04475 | 1000 ft | 129 kts | 232° |
| 2026-05-06 20:03 | 51.23590 | 3.03401 | 997 ft | 123 kts | 233° |
| 2026-05-06 20:03 | 51.23064 | 3.02379 | 992 ft | 117 kts | 231° |
| 2026-05-06 20:03 | 51.22553 | 3.01375 | 995 ft | 116 kts | 234° |
| 2026-05-06 20:03 | 51.22086 | 3.00337 | 975 ft | 115 kts | 241° |
| 2026-05-06 20:04 | 51.21767 | 2.99153 | 949 ft | 118 kts | 259° |
| 2026-05-06 20:04 | 51.21555 | 2.97895 | 949 ft | 116 kts | 259° |
| 2026-05-06 20:04 | 51.21365 | 2.96666 | 863 ft | 111 kts | 264° |
| 2026-05-06 20:04 | 51.21200 | 2.95461 | 782 ft | 113 kts | 261° |
| 2026-05-06 20:05 | 51.21011 | 2.94241 | 648 ft | 110 kts | 262° |
| 2026-05-06 20:05 | 51.20837 | 2.93135 | 454 ft | 98 kts | 262° |
| 2026-05-06 20:05 | 51.20685 | 2.92099 | 331 ft | 96 kts | 262° |
| 2026-05-06 20:05 | 51.20523 | 2.91059 | 235 ft | 96 kts | 264° |
| 2026-05-06 20:06 | 51.20368 | 2.90022 | 170 ft | 97 kts | 260° |
| 2026-05-06 20:06 | 51.20208 | 2.88961 | 73 ft | 99 kts | 264° |
| 2026-05-06 20:06 | 51.20053 | 2.87934 | 10 ft | 87 kts | 259° |
| 2026-05-06 20:06 | 51.19935 | 2.87144 | 13 ft | 52 kts | 257° |
| 2026-05-06 20:07 | 51.19915 | 2.86874 | 12 ft | 14 kts | 289° |
| 2026-05-06 20:07 | 51.19976 | 2.86762 | 11 ft | 12 kts | 316° |
| 2026-05-06 20:07 | 51.20028 | 2.86683 | 11 ft | 8 kts | 304° |
| 2026-05-06 20:07 | 51.20020 | 2.86577 | 11 ft | 14 kts | 255° |
| 2026-05-06 20:08 | 51.19994 | 2.86405 | 11 ft | 17 kts | 256° |
| 2026-05-06 20:08 | 51.19966 | 2.86232 | 11 ft | 15 kts | 252° |
| 2026-05-06 20:08 | 51.19947 | 2.86100 | 11 ft | 7 kts | 255° |
| 2026-05-06 20:08 | 51.19931 | 2.85988 | 11 ft | 11 kts | 256° |
| 2026-05-06 20:09 | 51.19910 | 2.85846 | 11 ft | 14 kts | 255° |
| 2026-05-06 20:09 | 51.19890 | 2.85716 | 11 ft | 11 kts | 257° |
| 2026-05-06 20:09 | 51.19876 | 2.85634 | 11 ft | 4 kts | 255° |
| 2026-05-06 20:09 | 51.19899 | 2.85612 | 11 ft | 6 kts | 51° |
| 2026-05-06 20:10 | 51.19934 | 2.85619 | 11 ft | 7 kts | 319° |
| 2026-05-06 20:10 | 51.19957 | 2.85587 | 11 ft | 4 kts | 318° |
| 2026-05-06 20:10 | 51.19957 | 2.85577 | 11 ft | 0 kts | 221° |